createdAt,value
2019-06-26T00:04:45.961Z,100.00
2019-06-26T00:09:51.809Z,100.00
2019-06-26T00:14:57.712Z,100.00
2019-06-26T00:20:05.573Z,100.00
2019-06-26T00:25:11.493Z,100.00
2019-06-26T00:30:17.687Z,100.00
2019-06-26T00:35:23.622Z,100.00
2019-06-26T00:40:29.429Z,100.00
2019-06-26T00:45:35.193Z,100.00
2019-06-26T00:50:40.885Z,100.00
2019-06-26T00:55:46.987Z,100.00
2019-06-26T01:00:52.865Z,100.00
2019-06-26T01:05:58.792Z,100.00
2019-06-26T01:11:04.479Z,100.00
2019-06-26T01:16:10.289Z,100.00
2019-06-26T01:21:16.182Z,100.00
2019-06-26T01:26:22.540Z,100.00
2019-06-26T01:31:28.310Z,100.00
2019-06-26T01:36:34.199Z,100.00
2019-06-26T01:41:40.306Z,100.00
2019-06-26T01:46:46.131Z,100.00
2019-06-26T01:51:52.131Z,100.00
2019-06-26T01:56:57.981Z,100.00
2019-06-26T02:02:03.867Z,100.00
2019-06-26T02:07:09.922Z,100.00
2019-06-26T02:12:16.065Z,100.00
2019-06-26T02:17:21.904Z,100.00
2019-06-26T02:22:27.668Z,100.00
2019-06-26T02:27:33.468Z,100.00
2019-06-26T02:32:39.417Z,100.00
2019-06-26T02:37:45.702Z,100.00
2019-06-26T02:42:51.440Z,100.00
2019-06-26T02:47:57.406Z,100.00
2019-06-26T02:53:03.351Z,100.00
2019-06-26T02:58:09.496Z,100.00
2019-06-26T03:03:15.328Z,100.00
2019-06-26T03:08:21.235Z,100.00
2019-06-26T03:13:26.909Z,100.00
2019-06-26T03:18:32.633Z,100.00
2019-06-26T03:23:38.428Z,100.00
2019-06-26T03:28:44.706Z,100.00
2019-06-26T03:33:50.400Z,100.00
2019-06-26T03:38:56.429Z,100.00
2019-06-26T03:44:02.471Z,100.00
2019-06-26T03:49:08.092Z,100.00
2019-06-26T03:54:13.975Z,100.00
2019-06-26T03:59:20.074Z,100.00
2019-06-26T04:04:25.884Z,100.00
2019-06-26T04:09:32.087Z,100.00
2019-06-26T04:14:37.929Z,100.00
2019-06-26T04:19:43.606Z,100.00
2019-06-26T04:24:49.392Z,100.00
2019-06-26T04:29:55.556Z,100.00
2019-06-26T04:35:01.498Z,100.00
2019-06-26T04:40:08.437Z,100.00
2019-06-26T04:45:15.629Z,100.00
2019-06-26T04:50:22.430Z,100.00
2019-06-26T04:55:28.186Z,100.00
2019-06-26T05:00:34.187Z,100.00
2019-06-26T05:05:40.457Z,100.00
2019-06-26T05:10:46.164Z,100.00
2019-06-26T05:15:51.815Z,100.00
2019-06-26T05:20:57.753Z,100.00
2019-06-26T05:26:03.883Z,100.00
2019-06-26T05:31:09.804Z,100.00
2019-06-26T05:36:15.707Z,100.00
2019-06-26T05:41:21.508Z,100.00
2019-06-26T05:46:31.485Z,100.00
2019-06-26T05:51:34.815Z,100.00
2019-06-26T05:56:40.799Z,100.00
2019-06-26T06:01:46.657Z,100.00
2019-06-26T06:06:52.403Z,100.00
2019-06-26T06:11:57.998Z,100.00
2019-06-26T06:17:03.872Z,100.00
2019-06-26T06:22:09.728Z,100.00
2019-06-26T06:27:15.596Z,100.00
2019-06-26T06:32:21.443Z,100.00
2019-06-26T06:37:27.453Z,100.00
2019-06-26T06:42:33.245Z,100.00
2019-06-26T06:47:38.973Z,100.00
2019-06-26T06:52:44.649Z,100.00
2019-06-26T06:57:50.432Z,100.00
2019-06-26T07:02:58.033Z,100.00
2019-06-26T07:08:03.814Z,100.00
2019-06-26T07:13:09.900Z,100.00
2019-06-26T07:18:15.813Z,100.00
2019-06-26T07:23:21.645Z,100.00
2019-06-26T07:28:27.609Z,100.00
2019-06-26T07:33:33.779Z,100.00
2019-06-26T07:38:39.830Z,100.00
2019-06-26T07:43:45.501Z,100.00
2019-06-26T07:48:52.414Z,100.00
2019-06-26T07:53:58.200Z,100.00
2019-06-26T07:59:03.925Z,100.00
2019-06-26T08:04:09.726Z,100.00
2019-06-26T08:09:15.423Z,100.00
2019-06-26T08:14:21.368Z,100.00
2019-06-26T08:19:27.336Z,100.00
2019-06-26T08:24:33.099Z,100.00
2019-06-26T08:29:39.930Z,100.00
2019-06-26T08:34:46.709Z,100.00
2019-06-26T08:39:54.119Z,100.00
2019-06-26T08:45:00.185Z,100.00
2019-06-26T08:50:07.265Z,100.00
2019-06-26T08:55:13.480Z,99.76
2019-06-26T09:00:19.733Z,100.00
2019-06-26T09:05:25.641Z,95.54
2019-06-26T09:10:31.567Z,86.95
2019-06-26T09:15:38.883Z,85.36
2019-06-26T09:20:44.809Z,92.86
2019-06-26T09:25:50.576Z,93.41
2019-06-26T09:30:56.322Z,96.45
2019-06-26T09:36:01.993Z,100.00
2019-06-26T09:41:07.722Z,95.62
2019-06-26T09:46:13.384Z,80.34
2019-06-26T09:51:19.388Z,84.30
2019-06-26T09:56:25.368Z,80.33
2019-06-26T10:01:31.250Z,76.45
2019-06-26T10:06:36.976Z,75.96
2019-06-26T10:11:42.819Z,70.37
2019-06-26T10:16:48.615Z,69.70
2019-06-26T10:21:54.480Z,68.52
2019-06-26T10:27:00.466Z,66.37
2019-06-26T10:32:06.615Z,64.28
2019-06-26T10:37:12.651Z,63.58
2019-06-26T10:42:18.776Z,58.98
2019-06-26T10:47:24.906Z,57.21
2019-06-26T10:52:31.715Z,57.80
2019-06-26T10:57:38.859Z,55.57
2019-06-26T11:02:47.133Z,56.74
2019-06-26T11:07:54.044Z,55.82
2019-06-26T11:13:00.195Z,56.46
2019-06-26T11:18:06.030Z,57.77
2019-06-26T11:23:11.939Z,57.06
2019-06-26T11:28:17.876Z,57.16
2019-06-26T11:33:23.941Z,57.26
2019-06-26T11:38:29.820Z,56.40
2019-06-26T11:43:35.588Z,54.92
2019-06-26T11:48:41.415Z,54.42
2019-06-26T11:53:47.496Z,51.78
2019-06-26T11:58:53.334Z,52.85
2019-06-26T12:03:59.173Z,51.05
2019-06-26T12:09:07.877Z,51.95
2019-06-26T12:14:13.540Z,51.56
2019-06-26T12:19:23.273Z,49.93
2019-06-26T12:24:26.851Z,49.59
2019-06-26T12:29:33.137Z,48.48
2019-06-26T12:34:44.944Z,47.44
2019-06-26T12:39:48.315Z,47.45
2019-06-26T12:44:54.437Z,46.13
2019-06-26T12:50:00.313Z,46.31
2019-06-26T12:55:06.700Z,46.20
2019-06-26T13:00:12.799Z,47.54
2019-06-26T13:05:18.734Z,46.66
2019-06-26T13:10:24.806Z,46.58
2019-06-26T13:15:31.709Z,45.96
2019-06-26T13:20:51.585Z,46.74
2019-06-26T13:25:45.372Z,44.59
2019-06-26T13:30:53.349Z,46.78
2019-06-26T13:35:58.773Z,46.95
2019-06-26T13:41:04.479Z,47.65
2019-06-26T13:46:10.456Z,47.24
2019-06-26T13:51:16.237Z,47.59
2019-06-26T13:56:21.991Z,44.39
2019-06-26T14:01:28.253Z,47.87
2019-06-26T14:06:33.943Z,47.00
2019-06-26T14:11:42.186Z,47.28
2019-06-26T14:16:48.005Z,46.00
2019-06-26T14:21:53.844Z,46.85
2019-06-26T14:26:59.690Z,47.24
2019-06-26T14:32:05.496Z,49.82
2019-06-26T14:37:11.323Z,50.89
2019-06-26T14:42:17.165Z,50.35
2019-06-26T14:47:22.752Z,46.13
2019-06-26T14:52:28.515Z,46.45
2019-06-26T14:57:34.382Z,47.31
2019-06-26T15:02:40.171Z,46.56
2019-06-26T15:07:45.951Z,48.71
2019-06-26T15:12:51.709Z,46.04
2019-06-26T15:17:57.571Z,47.69
2019-06-26T15:23:03.483Z,49.18
2019-06-26T15:28:10.494Z,46.84
2019-06-26T15:33:16.321Z,47.47
2019-06-26T15:38:22.043Z,48.95
2019-06-26T15:43:27.933Z,49.42
2019-06-26T15:48:33.903Z,49.42
2019-06-26T15:53:39.702Z,51.81
2019-06-26T15:58:45.642Z,53.68
2019-06-26T16:03:52.478Z,50.03
2019-06-26T16:08:57.947Z,50.03
2019-06-26T16:14:03.537Z,50.33
2019-06-26T16:19:11.282Z,48.79
2019-06-26T16:24:16.939Z,42.33
2019-06-26T16:29:23.243Z,41.30
2019-06-26T16:34:28.914Z,46.90
2019-06-26T16:39:34.968Z,44.46
2019-06-26T16:44:40.867Z,41.54
2019-06-26T16:49:47.070Z,46.97
2019-06-26T16:54:56.518Z,48.81
2019-06-26T17:00:09.433Z,47.79
2019-06-26T17:05:10.916Z,49.50
2019-06-26T17:10:19.057Z,57.25
2019-06-26T17:15:24.862Z,60.76
2019-06-26T17:20:30.642Z,61.46
2019-06-26T17:25:36.379Z,63.73
2019-06-26T17:30:42.374Z,70.36
2019-06-26T17:35:50.668Z,74.25
2019-06-26T17:40:59.437Z,80.94
2019-06-26T17:46:04.121Z,78.84
2019-06-26T17:51:09.913Z,80.47
2019-06-26T17:56:15.580Z,81.33
2019-06-26T18:01:21.289Z,78.78
2019-06-26T18:06:26.890Z,80.89
2019-06-26T18:11:32.460Z,81.17
2019-06-26T18:16:38.395Z,83.09
2019-06-26T18:21:44.189Z,84.98
2019-06-26T18:26:50.042Z,83.50
2019-06-26T18:31:55.803Z,81.06
2019-06-26T18:37:01.606Z,86.47
2019-06-26T18:42:07.746Z,81.37
2019-06-26T18:47:13.757Z,84.39
2019-06-26T18:52:19.594Z,90.29
2019-06-26T18:57:25.208Z,90.53
2019-06-26T19:02:30.929Z,90.26
2019-06-26T19:07:36.802Z,93.19
2019-06-26T19:12:42.670Z,94.46
2019-06-26T19:17:48.442Z,97.87
2019-06-26T19:22:54.205Z,100.00
2019-06-26T19:27:59.821Z,100.00
2019-06-26T19:33:05.926Z,100.00
2019-06-26T19:38:11.989Z,100.00
2019-06-26T19:43:17.702Z,100.00
2019-06-26T19:48:23.566Z,100.00
2019-06-26T19:53:29.338Z,100.00
2019-06-26T19:58:35.418Z,100.00
2019-06-26T20:03:42.120Z,100.00
2019-06-26T20:08:54.425Z,100.00
2019-06-26T20:13:55.378Z,100.00
2019-06-26T20:19:01.009Z,100.00
2019-06-26T20:24:06.824Z,100.00
2019-06-26T20:29:12.481Z,100.00
2019-06-26T20:34:20.109Z,100.00
2019-06-26T20:39:25.901Z,100.00
2019-06-26T20:44:31.640Z,100.00
2019-06-26T20:49:52.195Z,100.00
2019-06-26T20:54:59.986Z,100.00
2019-06-26T20:59:53.701Z,100.00
2019-06-26T21:04:59.392Z,100.00
2019-06-26T21:10:06.003Z,100.00
2019-06-26T21:15:11.927Z,100.00
2019-06-26T21:20:17.671Z,100.00
2019-06-26T21:25:23.494Z,100.00
2019-06-26T21:30:29.257Z,100.00
2019-06-26T21:35:35.099Z,100.00
2019-06-26T21:40:40.949Z,100.00
2019-06-26T21:45:46.814Z,100.00
2019-06-26T21:50:53.100Z,100.00
2019-06-26T21:55:58.771Z,100.00
2019-06-26T22:01:22.864Z,100.00
2019-06-26T22:06:46.529Z,100.00
2019-06-26T22:11:53.739Z,100.00
2019-06-26T22:16:59.607Z,100.00
2019-06-26T22:22:05.474Z,100.00
2019-06-26T22:27:11.556Z,100.00
2019-06-26T22:32:17.561Z,100.00
2019-06-26T22:37:23.703Z,100.00
2019-06-26T22:42:29.578Z,100.00
2019-06-26T22:47:35.395Z,100.00
2019-06-26T22:52:41.223Z,100.00
2019-06-26T22:57:47.091Z,100.00
2019-06-26T23:02:55.143Z,100.00
2019-06-26T23:08:00.987Z,100.00
2019-06-26T23:13:09.588Z,100.00
2019-06-26T23:18:14.365Z,100.00
2019-06-26T23:23:20.648Z,100.00
2019-06-26T23:28:26.472Z,100.00
2019-06-26T23:33:32.390Z,100.00
2019-06-26T23:38:38.342Z,100.00
2019-06-26T23:43:43.930Z,100.00
2019-06-26T23:48:50.007Z,100.00
2019-06-26T23:53:55.774Z,100.00
2019-06-26T23:59:02.870Z,100.00
